Welcome to Northern Hawkes Bay. New Zealand.
PWS Header
      nz Flag



Hit Counter


W3C Valid W3C Valid logo


    Wairoa

Select any of the Stations below to visit their websites.










Historic Data from Weather Underground
Select the location of interest below. Wairoa is the default. Please have patience, this Data is slow to load in.
Northern Hawkes Bay Historical Data
Daily Summary for March 16, 2018 Units:  Metric    English   Both
« Previous Day
Next Day »
Daily Weekly Monthly Yearly Custom
  High: Low: Average:
Temperature: 27.1 °C 14.5 °C 20.8 °C
Dew Point: 18.7 °C 11.3 °C 14.4 °C
Humidity: 94% 49% 68%
Wind Speed: 28.0km/h 0.0km/h 7.6km/h
Wind Gust: 42.8km/h - -
Wind- - NW
Pressure: 1015.5 hPa 1007.7 hPa -
Precipitation: 0.0 mm    
Historical Graphs
 
 
Tabular Data for March 16, 2018
Time Temperature Dew Point Pressure Wind Wind Speed Wind Gust Humidity Rainfall Rate (Hourly) solar
00:02 16.9 °C 12.2 °C 1014.1 hPa NNW 2.6 km/h 11.1 km/h 74% 0.0 mm 0 W/m2
00:07 17.0 °C 12.1 °C 1013.8 hPa Calm   11.1 km/h 73% 0.0 mm 0 W/m2
00:12 16.9 °C 12.2 °C 1013.8 hPa Calm   11.1 km/h 74% 0.0 mm 0 W/m2
00:17 16.8 °C 12.3 °C 1013.8 hPa Calm   5.0 km/h 75% 0.0 mm 0 W/m2
00:22 16.8 °C 12.3 °C 1013.8 hPa North 1.1 km/h 6.1 km/h 75% 0.0 mm 0 W/m2
00:27 16.8 °C 12.2 °C 1013.8 hPa Calm   7.2 km/h 74% 0.0 mm 0 W/m2
00:32 16.9 °C 12.2 °C 1013.4 hPa North 1.1 km/h 7.2 km/h 74% 0.0 mm 0 W/m2
00:37 17.0 °C 12.1 °C 1013.4 hPa North 2.6 km/h 7.2 km/h 73% 0.0 mm 0 W/m2
00:42 17.1 °C 12.0 °C 1013.8 hPa North 1.1 km/h 7.2 km/h 72% 0.0 mm 0 W/m2
00:47 17.2 °C 11.9 °C 1013.8 hPa North 3.5 km/h 9.7 km/h 71% 0.0 mm 0 W/m2
00:52 17.4 °C 11.9 °C 1013.8 hPa NNW 2.6 km/h 11.1 km/h 70% 0.0 mm 0 W/m2
00:57 17.5 °C 12.0 °C 1013.8 hPa Calm   11.1 km/h 70% 0.0 mm 0 W/m2
01:02 17.5 °C 11.8 °C 1013.8 hPa NNW 2.6 km/h 7.2 km/h 69% 0.0 mm 0 W/m2
01:07 17.5 °C 11.8 °C 1013.4 hPa Calm   7.2 km/h 69% 0.0 mm 0 W/m2
01:12 17.5 °C 11.6 °C 1013.4 hPa NNW 3.5 km/h 7.2 km/h 68% 0.0 mm 0 W/m2
01:17 17.3 °C 11.8 °C 1013.4 hPa Calm   6.1 km/h 70% 0.0 mm 0 W/m2
01:22 17.1 °C 11.8 °C 1013.8 hPa NNW 1.1 km/h 11.1 km/h 71% 0.0 mm 0 W/m2
01:27 17.1 °C 11.8 °C 1013.8 hPa NW 1.1 km/h 11.1 km/h 71% 0.0 mm 0 W/m2
01:32 17.1 °C 11.6 °C 1013.8 hPa Calm   7.2 km/h 70% 0.0 mm 0 W/m2
01:37 16.8 °C 11.7 °C 1014.1 hPa Calm   5.0 km/h 72% 0.0 mm 0 W/m2
01:42 16.6 °C 11.6 °C 1014.1 hPa Calm     72% 0.0 mm 0 W/m2
01:47 16.3 °C 11.4 °C 1014.1 hPa Calm     73% 0.0 mm 0 W/m2
01:52 16.2 °C 11.6 °C 1013.8 hPa Calm   1.1 km/h 74% 0.0 mm 0 W/m2
01:57 16.0 °C 11.6 °C 1013.8 hPa Calm   5.0 km/h 75% 0.0 mm 0 W/m2
02:02 15.9 °C 11.9 °C 1013.4 hPa Calm   5.0 km/h 77% 0.0 mm 0 W/m2
02:07 15.8 °C 11.8 °C 1013.4 hPa Calm   3.5 km/h 77% 0.0 mm 0 W/m2
02:12 15.6 °C 11.6 °C 1013.4 hPa Calm     77% 0.0 mm 0 W/m2
02:17 15.4 °C 11.6 °C 1013.4 hPa Calm     78% 0.0 mm 0 W/m2
02:22 15.2 °C 11.6 °C 1013.1 hPa Calm     79% 0.0 mm 0 W/m2
02:27 15.1 °C 11.7 °C 1013.4 hPa Calm     80% 0.0 mm 0 W/m2
02:32 15.0 °C 11.6 °C 1013.1 hPa Calm     80% 0.0 mm 0 W/m2
02:37 14.9 °C 11.7 °C 1013.1 hPa Calm     81% 0.0 mm 0 W/m2
02:42 14.7 °C 11.5 °C 1013.1 hPa Calm     81% 0.0 mm 0 W/m2
02:47 14.5 °C 11.3 °C 1012.8 hPa Calm     81% 0.0 mm 0 W/m2
02:52 14.6 °C 11.6 °C 1012.4 hPa North 3.5 km/h 9.7 km/h 82% 0.0 mm 0 W/m2
02:57 15.0 °C 12.2 °C 1012.4 hPa North 2.6 km/h 9.7 km/h 83% 0.0 mm 0 W/m2
03:02 15.3 °C 12.3 °C 1012.4 hPa North 1.1 km/h 9.7 km/h 82% 0.0 mm 0 W/m2
03:07 15.6 °C 12.3 °C 1012.4 hPa North 1.1 km/h 9.7 km/h 81% 0.0 mm 0 W/m2
03:12 15.7 °C 12.3 °C 1012.4 hPa North 2.6 km/h 9.7 km/h 80% 0.0 mm 0 W/m2
03:17 15.7 °C 12.1 °C 1012.4 hPa Calm   8.7 km/h 79% 0.0 mm 0 W/m2
03:22 15.7 °C 12.1 °C 1012.4 hPa NNW 1.1 km/h 8.7 km/h 79% 0.0 mm 0 W/m2
03:27 15.6 °C 12.0 °C 1012.4 hPa NNW 1.1 km/h 8.7 km/h 79% 0.0 mm 0 W/m2
03:32 15.6 °C 12.0 °C 1012.1 hPa NNW 1.1 km/h 7.2 km/h 79% 0.0 mm 0 W/m2
03:37 15.6 °C 12.0 °C 1012.1 hPa NNW 1.1 km/h 8.7 km/h 79% 0.0 mm 0 W/m2
03:42 15.6 °C 12.0 °C 1012.1 hPa North 2.6 km/h 8.7 km/h 79% 0.0 mm 0 W/m2
03:47 15.7 °C 11.9 °C 1012.1 hPa Calm   6.1 km/h 78% 0.0 mm 0 W/m2
03:52 15.8 °C 12.0 °C 1011.7 hPa NNW 3.5 km/h 8.7 km/h 78% 0.0 mm 0 W/m2
03:57 15.7 °C 11.7 °C 1011.7 hPa NNW 3.5 km/h 8.7 km/h 77% 0.0 mm 0 W/m2
04:02 15.9 °C 11.9 °C 1011.7 hPa North 1.1 km/h 7.2 km/h 77% 0.0 mm 0 W/m2
04:07 16.0 °C 11.8 °C 1011.7 hPa Calm   7.2 km/h 76% 0.0 mm 0 W/m2
04:12 16.0 °C 11.6 °C 1011.7 hPa NE 3.5 km/h 12.2 km/h 75% 0.0 mm 0 W/m2
04:17 16.2 °C 11.8 °C 1011.7 hPa Calm   12.2 km/h 75% 0.0 mm 0 W/m2
04:22 16.2 °C 11.6 °C 1011.4 hPa Calm   12.2 km/h 74% 0.0 mm 0 W/m2
04:27 16.1 °C 11.7 °C 1011.7 hPa Calm   7.2 km/h 75% 0.0 mm 0 W/m2
04:32 15.9 °C 11.7 °C 1011.7 hPa Calm   6.1 km/h 76% 0.0 mm 0 W/m2
04:37 15.8 °C 11.8 °C 1011.4 hPa Calm   3.5 km/h 77% 0.0 mm 0 W/m2
04:42 15.5 °C 11.7 °C 1011.4 hPa Calm   3.5 km/h 78% 0.0 mm 0 W/m2
04:47 15.4 °C 11.6 °C 1011.1 hPa Calm   2.6 km/h 78% 0.0 mm 0 W/m2
04:52 15.2 °C 11.6 °C 1011.1 hPa Calm   2.6 km/h 79% 0.0 mm 0 W/m2
04:57 14.9 °C 11.5 °C 1010.7 hPa Calm   2.6 km/h 80% 0.0 mm 0 W/m2
05:02 14.6 °C 11.4 °C 1011.1 hPa Calm     81% 0.0 mm 0 W/m2
05:07 14.6 °C 11.6 °C 1010.7 hPa Calm   2.6 km/h 82% 0.0 mm 0 W/m2
05:12 14.8 °C 11.9 °C 1010.7 hPa NNW 3.5 km/h 7.2 km/h 83% 0.0 mm 0 W/m2
05:17 15.1 °C 12.1 °C 1010.7 hPa North 1.1 km/h 7.2 km/h 82% 0.0 mm 0 W/m2
05:22 15.3 °C 12.1 °C 1010.7 hPa NNW 3.5 km/h 7.2 km/h 81% 0.0 mm 0 W/m2
05:27 15.5 °C 12.1 °C 1010.7 hPa Calm   6.1 km/h 80% 0.0 mm 0 W/m2
05:32 15.4 °C 12.0 °C 1010.7 hPa NW 3.5 km/h 9.7 km/h 80% 0.0 mm 0 W/m2
05:37 15.5 °C 12.1 °C 1010.4 hPa NW 2.6 km/h 9.7 km/h 80% 0.0 mm 0 W/m2
05:42 15.6 °C 12.2 °C 1010.4 hPa North 2.6 km/h 9.7 km/h 80% 0.0 mm 0 W/m2
05:47 15.7 °C 12.3 °C 1010.4 hPa NNW 1.1 km/h 6.1 km/h 80% 0.0 mm 0 W/m2
05:52 15.5 °C 12.1 °C 1010.4 hPa NW 1.1 km/h 6.1 km/h 80% 0.0 mm 0 W/m2
05:57 15.4 °C 12.2 °C 1010.7 hPa NW 1.1 km/h 7.2 km/h 81% 0.0 mm 0 W/m2
06:02 15.2 °C 11.9 °C 1010.7 hPa NNW 1.1 km/h 8.7 km/h 81% 0.0 mm 0 W/m2
06:07 15.2 °C 12.2 °C 1010.4 hPa NNW 1.1 km/h 8.7 km/h 82% 0.0 mm 0 W/m2
06:12 15.2 °C 12.3 °C 1010.7 hPa NNW 1.1 km/h 11.1 km/h 83% 0.0 mm 0 W/m2
06:17 15.3 °C 12.4 °C 1010.4 hPa North 2.6 km/h 11.1 km/h 83% 0.0 mm 0 W/m2
06:22 15.4 °C 12.6 °C 1010.4 hPa NNW 2.6 km/h 11.1 km/h 83% 0.0 mm 0 W/m2
06:27 15.6 °C 12.7 °C 1010.0 hPa North 2.6 km/h 12.2 km/h 83% 0.0 mm 0 W/m2
06:32 15.8 °C 12.7 °C 1010.0 hPa North 5.0 km/h 12.2 km/h 82% 0.0 mm 0 W/m2
06:37 15.9 °C 12.7 °C 1010.4 hPa North 6.1 km/h 12.2 km/h 81% 0.0 mm 0 W/m2
06:42 15.7 °C 12.4 °C 1010.4 hPa North 2.6 km/h 11.1 km/h 81% 0.0 mm 0 W/m2
06:47 15.6 °C 12.6 °C 1010.4 hPa NNW 2.6 km/h 11.1 km/h 82% 0.0 mm 0 W/m2
06:52 15.7 °C 12.8 °C 1010.4 hPa North 2.6 km/h 11.1 km/h 83% 0.0 mm 0 W/m2
06:57 15.9 °C 13.0 °C 1010.4 hPa North 1.1 km/h 13.4 km/h 83% 0.0 mm 0 W/m2
07:02 16.4 °C 12.9 °C 1010.4 hPa North 5.0 km/h 13.4 km/h 80% 0.0 mm 0 W/m2
07:07 16.5 °C 12.8 °C 1010.4 hPa NNW 2.6 km/h 13.4 km/h 79% 0.0 mm 1 W/m2
07:12 16.7 °C 12.8 °C 1010.7 hPa NNW 3.5 km/h 13.4 km/h 78% 0.0 mm 3 W/m2
07:17 16.8 °C 12.8 °C 1010.7 hPa NNW 2.6 km/h 12.2 km/h 77% 0.0 mm 6 W/m2
07:22 17.0 °C 12.6 °C 1010.4 hPa North 6.1 km/h 12.2 km/h 75% 0.0 mm 11 W/m2
07:27 17.1 °C 12.7 °C 1010.7 hPa North 2.6 km/h 12.2 km/h 75% 0.0 mm 16 W/m2
07:32 17.1 °C 12.7 °C 1010.7 hPa North 5.0 km/h 14.8 km/h 75% 0.0 mm 19 W/m2
07:37 17.3 °C 12.8 °C 1010.7 hPa NNW 3.5 km/h 14.8 km/h 75% 0.0 mm 67 W/m2
07:42 17.7 °C 13.0 °C 1010.4 hPa NNW 3.5 km/h 14.8 km/h 74% 0.0 mm 70 W/m2
07:47 18.1 °C 13.4 °C 1010.7 hPa NNW 8.7 km/h 15.8 km/h 74% 0.0 mm 93 W/m2
07:52 18.3 °C 13.4 °C 1010.7 hPa NNW 1.1 km/h 15.8 km/h 73% 0.0 mm 106 W/m2
07:57 18.4 °C 13.3 °C 1010.7 hPa North 5.0 km/h 15.8 km/h 72% 0.0 mm 118 W/m2
08:02 18.5 °C 13.4 °C 1010.4 hPa North 6.1 km/h 13.4 km/h 72% 0.0 mm 135 W/m2
08:07 18.8 °C 13.4 °C 1010.7 hPa North 2.6 km/h 13.4 km/h 71% 0.0 mm 148 W/m2
08:12 19.1 °C 13.3 °C 1010.7 hPa NNW 6.1 km/h 15.8 km/h 69% 0.0 mm 158 W/m2
08:17 19.3 °C 13.5 °C 1010.7 hPa NNW 2.6 km/h 15.8 km/h 69% 0.0 mm 168 W/m2
08:22 19.5 °C 13.7 °C 1011.1 hPa NNW 3.5 km/h 12.2 km/h 69% 0.0 mm 178 W/m2
08:27 19.7 °C 13.9 °C 1010.7 hPa NNW 3.5 km/h 12.2 km/h 69% 0.0 mm 187 W/m2
08:32 19.9 °C 13.8 °C 1010.7 hPa NNW 5.0 km/h 14.8 km/h 68% 0.0 mm 195 W/m2
08:37 20.1 °C 13.8 °C 1010.7 hPa North 3.5 km/h 14.8 km/h 67% 0.0 mm 202 W/m2
08:42 20.3 °C 14.0 °C 1011.1 hPa NNW 7.2 km/h 14.8 km/h 67% 0.0 mm 209 W/m2
08:47 20.4 °C 14.1 °C 1011.1 hPa NW 5.0 km/h 13.4 km/h 67% 0.0 mm 215 W/m2
08:52 20.7 °C 14.4 °C 1010.7 hPa NNW 6.1 km/h 14.8 km/h 67% 0.0 mm 221 W/m2
08:57 21.0 °C 14.2 °C 1010.7 hPa North 9.7 km/h 14.8 km/h 65% 0.0 mm 226 W/m2
09:02 21.1 °C 14.1 °C 1010.7 hPa NNW 6.1 km/h 20.9 km/h 64% 0.0 mm 231 W/m2
09:07 21.3 °C 14.2 °C 1010.7 hPa NW 5.0 km/h 20.9 km/h 64% 0.0 mm 235 W/m2
09:12 21.3 °C 14.0 °C 1010.7 hPa NW 14.8 km/h 21.9 km/h 63% 0.0 mm 241 W/m2
09:17 21.4 °C 14.3 °C 1010.7 hPa NW 9.7 km/h 27.0 km/h 64% 0.0 mm 245 W/m2
09:22 21.6 °C 14.3 °C 1010.4 hPa NNW 7.2 km/h 27.0 km/h 63% 0.0 mm 252 W/m2
09:27 21.6 °C 14.3 °C 1010.4 hPa NNW 6.1 km/h 28.0 km/h 63% 0.0 mm 258 W/m2
09:32 21.8 °C 14.4 °C 1010.7 hPa NNW 13.4 km/h 28.0 km/h 63% 0.0 mm 266 W/m2
09:37 21.8 °C 14.4 °C 1010.7 hPa NNW 12.2 km/h 25.6 km/h 63% 0.0 mm 274 W/m2
09:42 21.9 °C 14.6 °C 1010.4 hPa NNW 17.2 km/h 28.0 km/h 63% 0.0 mm 283 W/m2
09:47 21.9 °C 14.6 °C 1010.4 hPa NNW 14.8 km/h 28.0 km/h 63% 0.0 mm 289 W/m2
09:52 22.0 °C 14.4 °C 1010.7 hPa NNW 8.7 km/h 28.0 km/h 62% 0.0 mm 298 W/m2
09:57 22.3 °C 14.7 °C 1010.7 hPa NNW 12.2 km/h 28.0 km/h 62% 0.0 mm 307 W/m2
10:02 22.4 °C 14.5 °C 1010.4 hPa NNW 12.2 km/h 28.0 km/h 61% 0.0 mm 315 W/m2
10:07 22.6 °C 14.9 °C 1010.4 hPa NNW 13.4 km/h 27.0 km/h 62% 0.0 mm 325 W/m2
10:12 22.6 °C 14.7 °C 1010.4 hPa NNW 12.2 km/h 29.4 km/h 61% 0.0 mm 334 W/m2
10:17 22.6 °C 14.7 °C 1010.4 hPa NNW 23.3 km/h 33.1 km/h 61% 0.0 mm 340 W/m2
10:22 22.5 °C 14.6 °C 1010.4 hPa NNW 12.2 km/h 33.1 km/h 61% 0.0 mm 348 W/m2
10:27 22.7 °C 14.8 °C 1010.4 hPa NNW 18.3 km/h 34.3 km/h 61% 0.0 mm 314 W/m2
10:32 22.9 °C 15.3 °C 1010.0 hPa NW 8.7 km/h 34.3 km/h 62% 0.0 mm 253 W/m2
10:37 23.0 °C 14.8 °C 1010.4 hPa NW 13.4 km/h 29.4 km/h 60% 0.0 mm 367 W/m2
10:42 23.0 °C 14.8 °C 1010.4 hPa NW 11.1 km/h 28.0 km/h 60% 0.0 mm 337 W/m2
10:47 23.0 °C 14.8 °C 1010.4 hPa NNW 17.2 km/h 31.7 km/h 60% 0.0 mm 340 W/m2
10:52 23.1 °C 15.4 °C 1010.0 hPa NW 14.8 km/h 31.7 km/h 62% 0.0 mm 63 W/m2
10:57 23.0 °C 14.8 °C 1010.0 hPa NNW 11.1 km/h 31.7 km/h 60% 0.0 mm 65 W/m2
11:02 23.1 °C 15.2 °C 1010.0 hPa NW 14.8 km/h 35.6 km/h 61% 0.0 mm 205 W/m2
11:07 23.4 °C 15.4 °C 1010.0 hPa NW 28.0 km/h 36.7 km/h 61% 0.0 mm 362 W/m2
11:12 23.3 °C 15.4 °C 1010.0 hPa NW 21.9 km/h 36.7 km/h 61% 0.0 mm 412 W/m2
11:17 23.5 °C 15.6 °C 1010.4 hPa NNW 15.8 km/h 36.7 km/h 61% 0.0 mm 424 W/m2
11:22 23.6 °C 15.7 °C 1010.0 hPa NNW 11.1 km/h 31.7 km/h 61% 0.0 mm 450 W/m2
11:27 23.6 °C 15.4 °C 1010.4 hPa NW 23.3 km/h 37.8 km/h 60% 0.0 mm 453 W/m2
11:32 23.6 °C 15.4 °C 1010.4 hPa NW 17.2 km/h 37.8 km/h 60% 0.0 mm 477 W/m2
11:37 23.8 °C 15.8 °C 1010.4 hPa NNW 11.1 km/h 37.8 km/h 61% 0.0 mm 477 W/m2
11:42 24.1 °C 15.3 °C 1010.0 hPa NNW 14.8 km/h 25.6 km/h 58% 0.0 mm 500 W/m2
11:47 24.2 °C 15.7 °C 1010.0 hPa NNW 14.8 km/h 25.6 km/h 59% 0.0 mm 510 W/m2
11:52 24.2 °C 15.4 °C 1009.7 hPa North 13.4 km/h 29.4 km/h 58% 0.0 mm 520 W/m2
11:57 24.2 °C 15.4 °C 1010.0 hPa NNW 12.2 km/h 29.4 km/h 58% 0.0 mm 526 W/m2
12:02 24.2 °C 15.4 °C 1010.0 hPa NW 8.7 km/h 28.0 km/h 58% 0.0 mm 535 W/m2
12:07 24.2 °C 15.4 °C 1010.0 hPa NNW 20.9 km/h 28.0 km/h 58% 0.0 mm 550 W/m2
12:12 24.2 °C 15.4 °C 1009.7 hPa NW 24.5 km/h 30.6 km/h 58% 0.0 mm 554 W/m2
12:17 24.2 °C 15.4 °C 1009.7 hPa NW 17.2 km/h 35.6 km/h 58% 0.0 mm 556 W/m2
12:22 24.2 °C 15.4 °C 1009.4 hPa NNW 13.4 km/h 35.6 km/h 58% 0.0 mm 567 W/m2
12:27 24.2 °C 15.4 °C 1009.4 hPa NW 15.8 km/h 33.1 km/h 58% 0.0 mm 569 W/m2
12:32 24.5 °C 15.7 °C 1009.4 hPa NW 24.5 km/h 33.1 km/h 58% 0.0 mm 570 W/m2
12:37 24.5 °C 16.0 °C 1009.4 hPa NW 9.7 km/h 30.6 km/h 59% 0.0 mm 588 W/m2
12:42 24.6 °C 15.8 °C 1009.4 hPa NW 12.2 km/h 30.6 km/h 58% 0.0 mm 598 W/m2
12:47 24.9 °C 16.1 °C 1009.4 hPa NNW 13.4 km/h 24.5 km/h 58% 0.0 mm 601 W/m2
12:52 24.9 °C 16.1 °C 1009.0 hPa NNW 8.7 km/h 33.1 km/h 58% 0.0 mm 600 W/m2
12:57 25.1 °C 16.0 °C 1009.0 hPa NW 6.1 km/h 33.1 km/h 57% 0.0 mm 609 W/m2
13:02 25.3 °C 15.9 °C 1009.0 hPa NW 7.2 km/h 29.4 km/h 56% 0.0 mm 620 W/m2
13:07 25.5 °C 15.8 °C 1009.0 hPa NNW 14.8 km/h 31.7 km/h 55% 0.0 mm 621 W/m2
13:12 25.2 °C 15.8 °C 1009.0 hPa NNW 23.3 km/h 33.1 km/h 56% 0.0 mm 622 W/m2
13:17 25.3 °C 15.9 °C 1009.4 hPa NNW 17.2 km/h 33.1 km/h 56% 0.0 mm 612 W/m2
13:22 25.4 °C 16.0 °C 1009.4 hPa NNW 19.5 km/h 33.1 km/h 56% 0.0 mm 610 W/m2
13:27 25.5 °C 16.1 °C 1009.0 hPa NNW 14.8 km/h 31.7 km/h 56% 0.0 mm 624 W/m2
13:32 25.7 °C 16.3 °C 1009.0 hPa NNW 13.4 km/h 29.4 km/h 56% 0.0 mm 632 W/m2
13:37 25.5 °C 15.8 °C 1009.0 hPa NW 18.3 km/h 36.7 km/h 55% 0.0 mm 626 W/m2
13:42 25.6 °C 16.2 °C 1009.0 hPa NNW 9.7 km/h 36.7 km/h 56% 0.0 mm 625 W/m2
13:47 25.7 °C 16.0 °C 1009.0 hPa NNW 23.3 km/h 34.3 km/h 55% 0.0 mm 636 W/m2
13:52 25.6 °C 16.2 °C 1008.7 hPa NW 13.4 km/h 34.3 km/h 56% 0.0 mm 628 W/m2
13:57 25.8 °C 16.1 °C 1008.7 hPa NNW 12.2 km/h 33.1 km/h 55% 0.0 mm 631 W/m2
14:02 25.9 °C 16.5 °C 1008.7 hPa NNW 11.1 km/h 30.6 km/h 56% 0.0 mm 620 W/m2
14:07 26.0 °C 15.7 °C 1009.0 hPa NW 17.2 km/h 30.6 km/h 53% 0.0 mm 592 W/m2
14:12 26.2 °C 16.4 °C 1008.7 hPa NW 18.3 km/h 30.6 km/h 55% 0.0 mm 548 W/m2
14:17 25.7 °C 15.7 °C 1009.0 hPa NW 18.3 km/h 40.4 km/h 54% 0.0 mm 580 W/m2
14:22 25.3 °C 15.6 °C 1009.0 hPa NW 9.7 km/h 40.4 km/h 55% 0.0 mm 107 W/m2
14:27 24.8 °C 16.0 °C 1008.7 hPa NW 19.5 km/h 34.3 km/h 58% 0.0 mm 113 W/m2
14:32 25.0 °C 15.9 °C 1008.7 hPa NNW 11.1 km/h 34.3 km/h 57% 0.0 mm 446 W/m2
14:37 25.6 °C 15.9 °C 1008.7 hPa NNW 20.9 km/h 34.3 km/h 55% 0.0 mm 473 W/m2
14:42 26.0 °C 16.3 °C 1008.4 hPa NW 13.4 km/h 29.4 km/h 55% 0.0 mm 644 W/m2
14:47 26.6 °C 16.3 °C 1008.7 hPa NW 13.4 km/h 29.4 km/h 53% 0.0 mm 286 W/m2
14:52 26.5 °C 16.2 °C 1008.7 hPa NW 18.3 km/h 39.3 km/h 53% 0.0 mm 570 W/m2
14:57 26.1 °C 15.5 °C 1008.7 hPa NW 19.5 km/h 42.8 km/h 52% 0.0 mm 584 W/m2
15:02 26.3 °C 16.0 °C 1008.7 hPa NW 19.5 km/h 42.8 km/h 53% 0.0 mm 602 W/m2
15:07 26.6 °C 16.3 °C 1008.7 hPa NW 20.9 km/h 36.7 km/h 53% 0.0 mm 482 W/m2
15:12 27.0 °C 16.3 °C 1008.4 hPa WNW 23.3 km/h 31.7 km/h 52% 0.0 mm 526 W/m2
15:17 26.1 °C 15.5 °C 1008.4 hPa WNW 12.2 km/h 31.7 km/h 52% 0.0 mm 111 W/m2
15:22 25.4 °C 15.7 °C 1008.4 hPa NW 24.5 km/h 39.3 km/h 55% 0.0 mm 89 W/m2
15:27 25.4 °C 15.7 °C 1008.4 hPa NW 18.3 km/h 39.3 km/h 55% 0.0 mm 105 W/m2
15:32 26.2 °C 15.9 °C 1008.4 hPa NW 18.3 km/h 39.3 km/h 53% 0.0 mm 111 W/m2
15:37 26.8 °C 16.4 °C 1008.4 hPa NW 9.7 km/h 31.7 km/h 53% 0.0 mm 121 W/m2
15:42 26.6 °C 15.9 °C 1008.4 hPa NW 9.7 km/h 31.7 km/h 52% 0.0 mm 112 W/m2
15:47 26.4 °C 15.8 °C 1008.4 hPa NW 18.3 km/h 39.3 km/h 52% 0.0 mm 177 W/m2
15:52 26.5 °C 15.9 °C 1008.4 hPa NW 11.1 km/h 39.3 km/h 52% 0.0 mm 257 W/m2
15:57 26.5 °C 15.9 °C 1008.4 hPa NW 12.2 km/h 35.6 km/h 52% 0.0 mm 427 W/m2
16:02 27.1 °C 16.1 °C 1008.4 hPa NW 15.8 km/h 24.5 km/h 51% 0.0 mm 438 W/m2
16:07 27.0 °C 15.7 °C 1008.4 hPa NW 14.8 km/h 27.0 km/h 50% 0.0 mm 377 W/m2
16:12 27.0 °C 15.7 °C 1008.4 hPa NW 14.8 km/h 27.0 km/h 50% 0.0 mm 337 W/m2
16:17 27.0 °C 16.0 °C 1008.4 hPa NW 20.9 km/h 29.4 km/h 51% 0.0 mm 234 W/m2
16:22 26.9 °C 16.2 °C 1008.4 hPa NW 13.4 km/h 29.4 km/h 52% 0.0 mm 339 W/m2
16:27 26.7 °C 15.7 °C 1008.0 hPa NNW 18.3 km/h 30.6 km/h 51% 0.0 mm 343 W/m2
16:32 26.5 °C 15.6 °C 1008.0 hPa NNW 14.8 km/h 34.3 km/h 51% 0.0 mm 357 W/m2
16:37 26.8 °C 16.2 °C 1008.0 hPa NW 18.3 km/h 34.3 km/h 52% 0.0 mm 353 W/m2
16:42 26.8 °C 15.8 °C 1008.0 hPa NW 14.8 km/h 30.6 km/h 51% 0.0 mm 351 W/m2
16:47 27.0 °C 16.0 °C 1008.0 hPa NW 13.4 km/h 30.6 km/h 51% 0.0 mm 338 W/m2
16:52 27.0 °C 15.4 °C 1008.0 hPa NW 18.3 km/h 28.0 km/h 49% 0.0 mm 329 W/m2
16:57 26.8 °C 15.8 °C 1008.4 hPa NW 18.3 km/h 29.4 km/h 51% 0.0 mm 128 W/m2
17:02 25.8 °C 15.8 °C 1008.0 hPa NNW 19.5 km/h 29.4 km/h 54% 0.0 mm 198 W/m2
17:07 26.2 °C 15.6 °C 1008.0 hPa NW 11.1 km/h 29.4 km/h 52% 0.0 mm 252 W/m2
17:12 26.4 °C 15.4 °C 1007.7 hPa NW 19.5 km/h 34.3 km/h 51% 0.0 mm 279 W/m2
17:17 26.1 °C 15.5 °C 1008.0 hPa NW 13.4 km/h 34.3 km/h 52% 0.0 mm 99 W/m2
17:22 25.5 °C 15.2 °C 1008.0 hPa NW 9.7 km/h 27.0 km/h 53% 0.0 mm 153 W/m2
17:27 25.7 °C 15.4 °C 1008.0 hPa NW 19.5 km/h 28.0 km/h 53% 0.0 mm 164 W/m2
17:32 25.9 °C 15.6 °C 1008.0 hPa NW 13.4 km/h 28.0 km/h 53% 0.0 mm 94 W/m2
17:37 25.9 °C 15.6 °C 1008.0 hPa NW 13.4 km/h 27.0 km/h 53% 0.0 mm 181 W/m2
17:43 26.0 °C 15.1 °C 1008.0 hPa NW 12.2 km/h 28.0 km/h 51% 0.0 mm 95 W/m2
17:48 25.4 °C 15.2 °C 1008.0 hPa NW 18.3 km/h 28.0 km/h 53% 0.0 mm 69 W/m2
17:53 24.8 °C 14.9 °C 1008.4 hPa NW 13.4 km/h 23.3 km/h 54% 0.0 mm 71 W/m2
17:58 24.6 °C 15.0 °C 1008.0 hPa NW 9.7 km/h 23.3 km/h 55% 0.0 mm 91 W/m2
18:03 24.3 °C 14.7 °C 1008.4 hPa NW 6.1 km/h 23.3 km/h 55% 0.0 mm 85 W/m2
18:08 24.3 °C 15.0 °C 1008.4 hPa NNW 9.7 km/h 20.9 km/h 56% 0.0 mm 70 W/m2
18:13 24.3 °C 15.0 °C 1008.4 hPa NW 17.2 km/h 23.3 km/h 56% 0.0 mm 50 W/m2
18:18 24.2 °C 14.9 °C 1008.0 hPa NW 13.4 km/h 23.3 km/h 56% 0.0 mm 49 W/m2
18:23 24.1 °C 14.8 °C 1008.4 hPa NW 5.0 km/h 23.3 km/h 56% 0.0 mm 50 W/m2
18:28 24.1 °C 15.1 °C 1008.4 hPa NNW 6.1 km/h 17.2 km/h 57% 0.0 mm 52 W/m2
18:33 24.0 °C 15.0 °C 1008.4 hPa NNW 7.2 km/h 19.5 km/h 57% 0.0 mm 42 W/m2
18:38 23.9 °C 15.4 °C 1008.4 hPa NW 6.1 km/h 19.5 km/h 59% 0.0 mm 33 W/m2
18:43 23.8 °C 15.3 °C 1008.7 hPa NW 8.7 km/h 14.8 km/h 59% 0.0 mm 38 W/m2
18:48 23.8 °C 15.3 °C 1008.7 hPa NW 9.7 km/h 14.8 km/h 59% 0.0 mm 27 W/m2
18:53 23.6 °C 15.4 °C 1008.7 hPa NNW 9.7 km/h 14.8 km/h 60% 0.0 mm 25 W/m2
18:58 23.5 °C 15.3 °C 1008.7 hPa NW 9.7 km/h 18.3 km/h 60% 0.0 mm 21 W/m2
19:03 23.3 °C 15.1 °C 1009.0 hPa WNW 7.2 km/h 18.3 km/h 60% 0.0 mm 16 W/m2
19:08 23.2 °C 15.3 °C 1009.0 hPa NW 6.1 km/h 19.5 km/h 61% 0.0 mm 10 W/m2
19:13 23.1 °C 15.2 °C 1009.0 hPa NW 5.0 km/h 19.5 km/h 61% 0.0 mm 6 W/m2
19:18 23.0 °C 15.3 °C 1009.0 hPa NNW 8.7 km/h 14.8 km/h 62% 0.0 mm 4 W/m2
19:23 22.8 °C 15.4 °C 1009.4 hPa NW 8.7 km/h 12.2 km/h 63% 0.0 mm 3 W/m2
19:28 22.7 °C 15.3 °C 1009.4 hPa NNW 5.0 km/h 12.2 km/h 63% 0.0 mm 0 W/m2
19:33 22.6 °C 15.2 °C 1009.4 hPa NNW 3.5 km/h 11.1 km/h 63% 0.0 mm 0 W/m2
19:38 22.5 °C 15.4 °C 1009.7 hPa North 1.1 km/h 8.7 km/h 64% 0.0 mm 0 W/m2
19:43 22.4 °C 15.3 °C 1009.7 hPa NNW 3.5 km/h 12.2 km/h 64% 0.0 mm 0 W/m2
19:48 22.3 °C 15.2 °C 1009.4 hPa NNW 2.6 km/h 12.2 km/h 64% 0.0 mm 0 W/m2
19:53 22.1 °C 15.2 °C 1009.7 hPa Calm   11.1 km/h 65% 0.0 mm 0 W/m2
19:58 21.9 °C 15.3 °C 1010.0 hPa Calm   6.1 km/h 66% 0.0 mm 0 W/m2
20:03 21.7 °C 15.3 °C 1010.0 hPa Calm   1.1 km/h 67% 0.0 mm 0 W/m2
20:08 21.5 °C 15.6 °C 1010.4 hPa Calm   2.6 km/h 69% 0.0 mm 0 W/m2
20:13 21.3 °C 15.6 °C 1010.0 hPa Calm   2.6 km/h 70% 0.0 mm 0 W/m2
20:18 21.4 °C 15.7 °C 1010.7 hPa Calm   2.6 km/h 70% 0.0 mm 0 W/m2
20:23 21.5 °C 15.8 °C 1010.7 hPa ENE 5.0 km/h 7.2 km/h 70% 0.0 mm 0 W/m2
20:28 21.7 °C 15.8 °C 1010.7 hPa Calm   7.2 km/h 69% 0.0 mm 0 W/m2
20:33 21.7 °C 15.6 °C 1010.7 hPa Calm   7.2 km/h 68% 0.0 mm 0 W/m2
20:38 21.6 °C 15.4 °C 1011.1 hPa Calm   1.1 km/h 68% 0.0 mm 0 W/m2
20:43 21.8 °C 15.7 °C 1011.1 hPa Calm   3.5 km/h 68% 0.0 mm 0 W/m2
20:48 21.8 °C 15.7 °C 1011.4 hPa Calm   3.5 km/h 68% 0.0 mm 0 W/m2
20:53 21.8 °C 15.7 °C 1011.4 hPa Calm   2.6 km/h 68% 0.0 mm 0 W/m2
20:59 21.7 °C 15.6 °C 1011.4 hPa Calm     68% 0.0 mm 0 W/m2
21:04 21.6 °C 15.7 °C 1011.7 hPa Calm   1.1 km/h 69% 0.0 mm 0 W/m2
21:09 21.5 °C 15.6 °C 1011.7 hPa Calm   1.1 km/h 69% 0.0 mm 0 W/m2
21:14 21.5 °C 15.8 °C 1012.1 hPa Calm   1.1 km/h 70% 0.0 mm 0 W/m2
21:19 21.4 °C 15.7 °C 1012.1 hPa Calm     70% 0.0 mm 0 W/m2
21:24 21.2 °C 15.7 °C 1012.1 hPa Calm     71% 0.0 mm 0 W/m2
21:29 21.0 °C 15.6 °C 1012.1 hPa Calm     71% 0.0 mm 0 W/m2
21:34 20.8 °C 15.8 °C 1012.1 hPa Calm     73% 0.0 mm 0 W/m2
21:39 20.5 °C 15.7 °C 1012.4 hPa Calm     74% 0.0 mm 0 W/m2
21:44 20.2 °C 15.7 °C 1012.4 hPa Calm     75% 0.0 mm 0 W/m2
21:49 20.1 °C 15.6 °C 1012.4 hPa Calm     75% 0.0 mm 0 W/m2
21:54 19.9 °C 15.6 °C 1012.8 hPa Calm     76% 0.0 mm 0 W/m2
21:59 19.9 °C 15.9 °C 1012.8 hPa Calm     78% 0.0 mm 0 W/m2
22:04 19.8 °C 16.1 °C 1012.8 hPa Calm     79% 0.0 mm 0 W/m2
22:09 19.8 °C 16.1 °C 1012.8 hPa Calm     79% 0.0 mm 0 W/m2
22:14 19.8 °C 16.1 °C 1012.8 hPa Calm     79% 0.0 mm 0 W/m2
22:19 19.6 °C 15.9 °C 1012.8 hPa Calm     79% 0.0 mm 0 W/m2
22:24 19.6 °C 16.3 °C 1013.1 hPa Calm     81% 0.0 mm 0 W/m2
22:29 19.4 °C 16.1 °C 1013.4 hPa Calm     81% 0.0 mm 0 W/m2
22:34 19.4 °C 16.3 °C 1013.4 hPa Calm     82% 0.0 mm 0 W/m2
22:39 19.8 °C 17.1 °C 1013.4 hPa Calm     84% 0.0 mm 0 W/m2
22:44 19.9 °C 17.1 °C 1013.8 hPa South 8.7 km/h 13.4 km/h 84% 0.0 mm 0 W/m2
22:49 20.2 °C 17.4 °C 1014.1 hPa SSE 13.4 km/h 33.1 km/h 84% 0.0 mm 0 W/m2
22:54 20.5 °C 17.6 °C 1014.1 hPa South 15.8 km/h 33.1 km/h 83% 0.0 mm 0 W/m2
22:59 20.2 °C 17.2 °C 1014.4 hPa South 18.3 km/h 31.7 km/h 83% 0.0 mm 0 W/m2
23:04 20.2 °C 17.4 °C 1014.4 hPa SSW 19.5 km/h 27.0 km/h 84% 0.0 mm 0 W/m2
23:09 20.2 °C 17.6 °C 1014.8 hPa SW 15.8 km/h 25.6 km/h 85% 0.0 mm 0 W/m2
23:14 20.1 °C 17.7 °C 1014.8 hPa SSW 17.2 km/h 25.6 km/h 86% 0.0 mm 0 W/m2
23:19 20.0 °C 17.8 °C 1014.8 hPa SSW 9.7 km/h 25.6 km/h 87% 0.0 mm 0 W/m2
23:24 19.9 °C 18.1 °C 1014.8 hPa South 15.8 km/h 25.6 km/h 89% 0.0 mm 0 W/m2
23:29 19.9 °C 18.2 °C 1015.1 hPa South 11.1 km/h 20.9 km/h 90% 0.0 mm 0 W/m2
23:34 19.9 °C 18.6 °C 1014.8 hPa SSW 7.2 km/h 20.9 km/h 92% 0.0 mm 0 W/m2
23:39 19.8 °C 18.7 °C 1015.1 hPa SSW 6.1 km/h 20.9 km/h 93% 0.0 mm 0 W/m2
23:44 19.8 °C 18.7 °C 1015.1 hPa SSW 8.7 km/h 20.9 km/h 93% 0.0 mm 0 W/m2
23:49 19.7 °C 18.7 °C 1015.5 hPa South 9.7 km/h 18.3 km/h 94% 0.0 mm 0 W/m2
23:54 19.7 °C 18.7 °C 1015.5 hPa South 12.2 km/h 20.9 km/h 94% 0.0 mm 0 W/m2
23:59 19.7 °C 18.7 °C 1015.5 hPa South 8.7 km/h 20.9 km/h 94% 0.0 mm 0 W/m2
Northern Hawkes Bay. New Zealand Historic Data
Compliments of Weather Underground - 2 mb